Time;durP1;ratioP1;P1;durP2;ratioP2;P2;SDS_P1;SDS_P2;PMS_P1;PMS_P2;Temp;Humidity;BMP_temperature;BMP_pressure;BME280_temperature;BME280_humidity;BME280_pressure;Samples;Min_cycle;Max_cycle;Signal;HPM_P1;HPM_P2
2023/06/24 00:00:52;;;;;;;1.48;1.10;;;19.30;99.90;;;;;;4968695;28;20284;-77
2023/06/24 00:03:18;;;;;;;1.42;0.90;;;19.20;99.90;;;;;;4983206;28;20112;-77
2023/06/24 00:05:49;;;;;;;1.10;0.95;;;19.20;99.90;;;;;;4974620;28;20073;-78
2023/06/24 00:08:19;;;;;;;1.88;1.00;;;19.10;99.90;;;;;;5000984;28;20053;-77
2023/06/24 00:10:49;;;;;;;0.80;0.75;;;19.10;99.90;;;;;;4984872;28;20050;-78
2023/06/24 00:13:15;;;;;;;1.33;1.00;;;19.10;99.90;;;;;;4968263;28;20046;-77
2023/06/24 00:15:42;;;;;;;1.17;1.00;;;19.10;99.90;;;;;;4965683;28;20124;-78
2023/06/24 00:18:10;;;;;;;1.48;0.90;;;19.10;99.90;;;;;;4964507;28;20116;-77
2023/06/24 00:20:37;;;;;;;1.02;0.90;;;19.10;99.90;;;;;;4967274;28;20058;-78
2023/06/24 00:23:04;;;;;;;1.10;1.00;;;19.10;99.90;;;;;;4963518;28;20054;-77
2023/06/24 00:25:30;;;;;;;1.23;1.08;;;19.10;99.90;;;;;;4981191;28;20062;-78
2023/06/24 00:27:57;;;;;;;1.17;0.98;;;19.10;99.90;;;;;;4965691;28;20057;-76
2023/06/24 00:30:26;;;;;;;1.30;1.00;;;19.10;99.90;;;;;;4984302;28;20046;-79
2023/06/24 00:32:52;;;;;;;1.50;1.13;;;19.00;99.90;;;;;;4964676;28;20113;-76
2023/06/24 00:35:20;;;;;;;1.27;1.10;;;19.00;99.90;;;;;;4965529;28;20157;-77
2023/06/24 00:37:47;;;;;;;0.80;0.80;;;19.00;99.90;;;;;;4962678;28;20808;-77
2023/06/24 00:40:15;;;;;;;1.77;1.30;;;18.90;99.90;;;;;;4965334;28;20568;-78
2023/06/24 00:42:44;;;;;;;1.38;1.17;;;19.00;99.90;;;;;;4982309;28;20539;-78
2023/06/24 00:45:11;;;;;;;1.10;0.90;;;18.90;99.90;;;;;;4975775;28;20046;-78
2023/06/24 00:47:38;;;;;;;1.77;0.93;;;18.90;99.90;;;;;;4949141;28;20046;-78
2023/06/24 00:50:06;;;;;;;1.20;1.00;;;18.90;99.90;;;;;;4965509;28;20046;-77
2023/06/24 00:52:33;;;;;;;1.23;0.82;;;18.90;99.90;;;;;;4964360;28;20046;-78
2023/06/24 00:55:02;;;;;;;1.98;1.25;;;18.90;99.90;;;;;;4987130;28;20045;-77
2023/06/24 00:57:29;;;;;;;1.00;0.90;;;18.90;99.90;;;;;;4973014;28;20461;-77
2023/06/24 00:59:56;;;;;;;1.45;1.08;;;18.80;99.90;;;;;;4964368;28;20054;-78
2023/06/24 01:02:27;;;;;;;1.20;1.02;;;18.80;99.90;;;;;;4995954;28;20065;-78
2023/06/24 01:04:55;;;;;;;1.25;1.10;;;18.70;99.90;;;;;;4965148;28;20122;-78
2023/06/24 01:07:22;;;;;;;1.10;0.90;;;18.70;99.90;;;;;;4965063;28;20100;-79
2023/06/24 01:09:48;;;;;;;1.70;1.00;;;18.70;99.90;;;;;;4980666;28;20631;-78
2023/06/24 01:12:15;;;;;;;1.38;1.10;;;18.70;99.90;;;;;;4948554;28;20494;-78
2023/06/24 01:14:42;;;;;;;1.27;0.93;;;18.60;99.90;;;;;;4965955;28;20060;-78
2023/06/24 01:17:12;;;;;;;1.08;0.98;;;18.60;99.90;;;;;;4963900;28;20042;-78
2023/06/24 01:20:11;;;;;;;1.30;1.10;;;18.50;99.90;;;;;;4982281;28;20058;-78
2023/06/24 01:22:46;;;;;;;1.23;1.13;;;18.50;99.90;;;;;;4981765;28;20050;-78
2023/06/24 01:25:35;;;;;;;1.05;0.90;;;18.50;99.90;;;;;;4964162;28;20129;-78
2023/06/24 01:28:09;;;;;;;1.63;1.27;;;18.40;99.90;;;;;;4979061;28;21011;-77
2023/06/24 01:31:07;;;;;;;1.17;0.82;;;18.40;99.90;;;;;;4960785;28;20130;-78
2023/06/24 01:33:43;;;;;;;1.17;0.98;;;18.40;99.90;;;;;;4975012;28;20079;-78
2023/06/24 01:36:11;;;;;;;1.33;1.02;;;18.40;99.90;;;;;;4965810;28;20043;-78
2023/06/24 01:38:51;;;;;;;1.58;1.02;;;18.30;99.90;;;;;;4967509;28;20062;-77
2023/06/24 01:41:24;;;;;;;1.88;1.23;;;18.30;99.90;;;;;;4967335;28;20445;-76
2023/06/24 01:43:52;;;;;;;1.42;1.10;;;18.20;99.90;;;;;;4967151;28;20104;-77
2023/06/24 01:46:21;;;;;;;1.20;0.98;;;18.20;99.90;;;;;;4969998;28;20444;-78
2023/06/24 01:48:51;;;;;;;1.20;1.05;;;18.20;99.90;;;;;;4967595;28;20046;-78
2023/06/24 01:51:19;;;;;;;1.23;1.10;;;18.20;99.90;;;;;;4967617;28;20050;-76
2023/06/24 01:53:51;;;;;;;2.33;1.20;;;18.20;99.90;;;;;;4967033;28;20564;-77
2023/06/24 01:56:17;;;;;;;1.65;1.23;;;18.10;99.90;;;;;;4983181;28;20086;-78
2023/06/24 01:58:45;;;;;;;1.23;1.08;;;18.10;99.90;;;;;;4969940;28;20050;-78
2023/06/24 02:01:12;;;;;;;1.05;0.95;;;18.00;99.90;;;;;;4985249;28;20081;-76
2023/06/24 02:03:40;;;;;;;1.13;0.90;;;18.00;99.90;;;;;;4943006;28;20655;-77
2023/06/24 02:06:09;;;;;;;1.30;1.08;;;18.00;99.90;;;;;;4950198;28;20117;-78
2023/06/24 02:08:37;;;;;;;1.75;1.00;;;17.90;99.90;;;;;;4966473;28;20050;-77
2023/06/24 02:11:04;;;;;;;1.25;1.05;;;17.90;99.90;;;;;;4950598;28;20445;-77
2023/06/24 02:13:32;;;;;;;1.30;1.02;;;17.80;99.90;;;;;;4949507;28;20150;-78
2023/06/24 02:15:59;;;;;;;1.80;1.20;;;17.70;99.90;;;;;;4935409;28;20046;-78
2023/06/24 02:18:27;;;;;;;1.05;0.95;;;17.70;99.90;;;;;;4950270;28;20077;-78
2023/06/24 02:20:54;;;;;;;1.50;1.40;;;17.70;99.90;;;;;;4967024;28;20050;-78
2023/06/24 02:23:21;;;;;;;1.60;1.35;;;17.60;99.90;;;;;;4950327;28;20511;-78
2023/06/24 02:25:48;;;;;;;1.27;1.10;;;17.60;99.90;;;;;;4950176;28;20042;-77
2023/06/24 02:28:15;;;;;;;1.35;1.23;;;17.60;99.90;;;;;;4966089;28;20054;-77
2023/06/24 02:30:42;;;;;;;2.00;1.13;;;17.60;99.90;;;;;;4966360;28;20505;-77
2023/06/24 02:33:11;;;;;;;1.67;1.30;;;17.60;99.90;;;;;;4947512;28;20057;-76
2023/06/24 02:35:38;;;;;;;2.20;1.23;;;17.60;99.90;;;;;;4951351;28;20046;-77
2023/06/24 02:38:05;;;;;;;1.42;1.30;;;17.60;99.90;;;;;;4934526;28;20116;-77
2023/06/24 02:40:32;;;;;;;1.20;1.10;;;17.60;99.90;;;;;;4952350;28;20221;-77
2023/06/24 02:42:59;;;;;;;1.80;1.23;;;17.70;99.90;;;;;;4938033;28;20146;-77
2023/06/24 02:45:26;;;;;;;1.70;1.20;;;17.60;99.90;;;;;;4987864;28;20054;-77
2023/06/24 02:47:53;;;;;;;1.63;1.50;;;17.60;99.90;;;;;;4954108;28;20144;-78
2023/06/24 02:50:20;;;;;;;1.35;0.88;;;17.60;99.90;;;;;;4935114;28;20635;-77
2023/06/24 02:52:46;;;;;;;1.55;1.20;;;17.60;99.90;;;;;;4954252;28;20074;-77
2023/06/24 02:55:14;;;;;;;1.60;1.27;;;17.50;99.90;;;;;;4953810;28;20050;-77
2023/06/24 02:57:41;;;;;;;1.48;1.25;;;17.50;99.90;;;;;;4954193;28;20061;-76
2023/06/24 03:00:12;;;;;;;1.48;1.25;;;17.50;99.90;;;;;;4938477;28;20105;-77
2023/06/24 03:02:39;;;;;;;1.70;1.40;;;17.60;99.90;;;;;;4960709;28;20062;-77
2023/06/24 03:05:06;;;;;;;1.65;1.30;;;17.50;99.90;;;;;;4973167;28;20053;-77
2023/06/24 03:07:36;;;;;;;1.50;1.08;;;17.40;99.90;;;;;;4974292;28;20523;-77
2023/06/24 03:10:05;;;;;;;1.98;1.35;;;17.40;99.90;;;;;;4965838;28;20050;-77
2023/06/24 03:12:32;;;;;;;1.55;1.40;;;17.40;99.90;;;;;;4992667;28;20057;-77
2023/06/24 03:15:00;;;;;;;1.40;1.20;;;17.30;99.90;;;;;;4991635;28;20088;-77
2023/06/24 03:17:27;;;;;;;2.05;1.70;;;17.30;99.90;;;;;;4975238;28;20603;-77
2023/06/24 03:19:53;;;;;;;1.42;1.25;;;17.30;99.90;;;;;;4974789;28;20559;-77
2023/06/24 03:22:21;;;;;;;2.25;1.48;;;17.30;99.90;;;;;;4975027;28;20077;-77
2023/06/24 03:24:49;;;;;;;1.50;1.23;;;17.30;99.90;;;;;;4990665;28;20107;-77
2023/06/24 03:27:15;;;;;;;1.23;1.13;;;17.30;99.90;;;;;;4990182;28;20052;-78
2023/06/24 03:29:42;;;;;;;1.80;1.40;;;17.30;99.90;;;;;;5008708;28;20112;-77
2023/06/24 03:32:09;;;;;;;1.50;1.30;;;17.30;99.90;;;;;;5007976;28;20099;-77
2023/06/24 03:34:36;;;;;;;1.83;1.35;;;17.20;99.90;;;;;;5006731;28;20707;-77
2023/06/24 03:37:04;;;;;;;1.67;1.30;;;17.20;99.90;;;;;;4991273;28;20077;-76
2023/06/24 03:39:31;;;;;;;1.77;1.38;;;17.10;99.90;;;;;;4987221;28;20042;-77
2023/06/24 03:41:57;;;;;;;2.15;1.75;;;17.10;99.90;;;;;;4974157;28;20054;-77
2023/06/24 03:44:24;;;;;;;1.88;1.50;;;17.10;99.90;;;;;;4990563;28;20054;-77
2023/06/24 03:46:51;;;;;;;1.73;1.60;;;17.10;99.90;;;;;;4978133;28;20331;-77
2023/06/24 03:49:18;;;;;;;2.13;1.80;;;17.10;99.90;;;;;;5002535;28;20100;-77
2023/06/24 03:51:45;;;;;;;1.58;1.27;;;17.10;99.90;;;;;;5007867;28;20096;-77
2023/06/24 03:54:12;;;;;;;1.48;1.38;;;17.00;99.90;;;;;;5004868;28;20133;-76
2023/06/24 03:56:38;;;;;;;1.60;1.50;;;17.10;99.90;;;;;;5001940;28;20850;-76
2023/06/24 03:59:05;;;;;;;1.98;1.63;;;17.10;99.90;;;;;;4991833;28;20068;-77
2023/06/24 04:01:32;;;;;;;2.40;2.13;;;17.10;99.90;;;;;;4992416;28;20054;-77
2023/06/24 04:03:59;;;;;;;1.98;1.65;;;17.10;99.90;;;;;;5011265;28;20105;-78
2023/06/24 04:06:26;;;;;;;2.20;1.77;;;17.10;99.90;;;;;;4995244;28;20041;-78
2023/06/24 04:08:53;;;;;;;2.08;1.67;;;17.00;99.90;;;;;;5018055;28;20092;-77
2023/06/24 04:11:20;;;;;;;2.67;2.05;;;17.00;99.90;;;;;;5008234;28;20042;-77
2023/06/24 04:13:48;;;;;;;2.42;1.98;;;17.10;99.90;;;;;;4975388;28;20069;-77
2023/06/24 04:16:15;;;;;;;2.67;2.28;;;17.10;99.90;;;;;;5002545;28;20041;-77
2023/06/24 04:18:42;;;;;;;2.38;2.13;;;17.10;99.90;;;;;;4991111;28;20054;-77
2023/06/24 04:21:08;;;;;;;2.63;2.20;;;17.10;99.90;;;;;;4999288;28;20528;-78
2023/06/24 04:23:35;;;;;;;3.25;2.28;;;17.10;99.90;;;;;;5008215;28;20089;-77
2023/06/24 04:26:02;;;;;;;2.60;2.05;;;17.10;99.90;;;;;;4980432;28;20053;-77
2023/06/24 04:28:29;;;;;;;2.75;2.40;;;17.10;99.90;;;;;;4993559;28;20060;-77
2023/06/24 04:30:56;;;;;;;2.80;2.30;;;17.10;99.90;;;;;;4994206;28;20042;-76
2023/06/24 04:33:24;;;;;;;2.80;2.40;;;17.10;99.90;;;;;;4990608;28;20064;-77
2023/06/24 04:35:51;;;;;;;3.20;2.22;;;17.10;99.90;;;;;;5004646;28;20038;-77
2023/06/24 04:38:18;;;;;;;2.72;2.25;;;17.10;99.90;;;;;;4991218;28;20648;-77
2023/06/24 04:40:45;;;;;;;3.05;2.28;;;17.10;99.90;;;;;;4992422;28;20112;-77
2023/06/24 04:43:12;;;;;;;2.60;2.25;;;17.10;99.90;;;;;;5003123;28;20597;-78
2023/06/24 04:45:39;;;;;;;2.97;2.33;;;17.10;99.90;;;;;;4983514;28;20053;-77
2023/06/24 04:48:05;;;;;;;2.60;2.15;;;17.10;99.90;;;;;;4988489;28;20046;-77
2023/06/24 04:50:32;;;;;;;3.33;2.75;;;17.20;99.90;;;;;;5006017;28;20061;-77
2023/06/24 04:53:01;;;;;;;2.65;2.33;;;17.20;99.90;;;;;;4972975;28;20130;-78
2023/06/24 04:55:31;;;;;;;3.05;2.58;;;17.20;99.90;;;;;;4988779;28;20082;-78
2023/06/24 04:57:58;;;;;;;2.67;2.33;;;17.20;99.90;;;;;;4974805;28;20053;-77
2023/06/24 05:00:25;;;;;;;3.15;2.60;;;17.20;99.90;;;;;;4990783;28;20050;-78
2023/06/24 05:02:52;;;;;;;3.75;2.97;;;17.30;99.90;;;;;;5000738;28;20069;-77
2023/06/24 05:05:20;;;;;;;2.80;2.50;;;17.30;99.90;;;;;;4983925;28;20607;-77
2023/06/24 05:07:47;;;;;;;3.08;2.78;;;17.40;99.90;;;;;;5003528;28;20046;-77
2023/06/24 05:10:14;;;;;;;3.40;2.60;;;17.40;99.90;;;;;;4986654;28;20128;-77
2023/06/24 05:12:41;;;;;;;3.33;2.65;;;17.40;99.90;;;;;;4984901;28;20046;-77
2023/06/24 05:15:09;;;;;;;3.20;2.90;;;17.50;99.90;;;;;;4968104;28;20547;-77
2023/06/24 05:17:36;;;;;;;2.83;2.47;;;17.50;99.90;;;;;;5003445;28;20038;-77
2023/06/24 05:20:04;;;;;;;3.30;3.00;;;17.60;99.90;;;;;;4959426;28;20478;-77
2023/06/24 05:22:31;;;;;;;3.30;2.92;;;17.60;99.90;;;;;;5001133;28;20046;-78
2023/06/24 05:24:58;;;;;;;2.60;2.25;;;17.60;99.90;;;;;;4982225;28;20068;-77
2023/06/24 05:27:24;;;;;;;3.28;2.85;;;17.70;99.90;;;;;;5004854;28;20116;-77
2023/06/24 05:29:51;;;;;;;2.92;2.60;;;17.70;99.90;;;;;;4992142;28;20046;-77
2023/06/24 05:32:20;;;;;;;3.42;2.85;;;17.70;99.90;;;;;;4984782;28;20658;-77
2023/06/24 05:34:47;;;;;;;3.35;2.65;;;17.70;99.90;;;;;;4983577;28;20093;-77
2023/06/24 05:37:14;;;;;;;2.30;2.00;;;17.80;99.90;;;;;;4984661;28;20119;-77
2023/06/24 05:39:41;;;;;;;2.92;2.28;;;17.80;99.90;;;;;;5010062;28;20061;-77
2023/06/24 05:42:08;;;;;;;2.65;2.42;;;17.80;99.90;;;;;;4978226;28;20053;-77
2023/06/24 05:44:34;;;;;;;2.55;2.28;;;17.90;99.90;;;;;;4969854;28;20057;-76
2023/06/24 05:47:01;;;;;;;3.25;2.67;;;17.90;99.90;;;;;;5015075;28;20045;-77
2023/06/24 05:49:28;;;;;;;3.35;2.60;;;18.00;99.90;;;;;;4989842;28;20561;-77
2023/06/24 05:51:56;;;;;;;2.75;1.95;;;18.10;99.90;;;;;;5017106;28;20102;-78
2023/06/24 05:54:23;;;;;;;2.38;2.17;;;18.10;99.90;;;;;;5004236;28;20403;-77
2023/06/24 05:56:50;;;;;;;2.67;2.47;;;18.20;99.90;;;;;;5003430;28;20127;-77
2023/06/24 05:59:17;;;;;;;2.38;2.17;;;18.20;99.90;;;;;;4970821;28;20053;-78
2023/06/24 06:01:44;;;;;;;2.70;2.25;;;18.30;99.90;;;;;;4984628;28;20602;-78
2023/06/24 06:04:10;;;;;;;3.20;2.65;;;18.40;99.90;;;;;;4999758;28;20584;-78
2023/06/24 06:06:37;;;;;;;2.67;2.15;;;18.40;99.90;;;;;;4983691;28;20038;-77
2023/06/24 06:09:05;;;;;;;2.30;2.10;;;18.40;99.90;;;;;;4983713;28;20544;-78
2023/06/24 06:11:32;;;;;;;2.88;2.15;;;18.50;99.90;;;;;;4969178;28;20073;-78
2023/06/24 06:13:59;;;;;;;2.95;2.67;;;18.50;99.90;;;;;;4982644;28;20057;-78
2023/06/24 06:16:26;;;;;;;2.40;2.20;;;18.60;99.90;;;;;;4970285;28;20378;-78
2023/06/24 06:18:53;;;;;;;3.28;2.15;;;18.60;99.90;;;;;;4970003;28;20049;-77
2023/06/24 06:21:19;;;;;;;2.60;2.20;;;18.70;99.90;;;;;;4986250;28;20109;-77
2023/06/24 06:23:46;;;;;;;2.88;2.00;;;18.80;99.90;;;;;;5000859;28;20149;-77
2023/06/24 06:26:13;;;;;;;2.70;2.25;;;18.80;99.90;;;;;;4999962;28;20576;-77
2023/06/24 06:28:40;;;;;;;2.88;2.50;;;18.80;99.90;;;;;;4982389;28;20465;-78
2023/06/24 06:31:07;;;;;;;2.22;2.00;;;18.90;99.90;;;;;;4984866;28;20057;-78
2023/06/24 06:33:34;;;;;;;2.90;2.70;;;19.00;99.90;;;;;;5001472;28;20133;-76
2023/06/24 06:36:01;;;;;;;2.53;2.22;;;19.10;99.90;;;;;;5003887;28;20057;-76
2023/06/24 06:38:28;;;;;;;2.25;2.05;;;19.30;99.90;;;;;;5003088;28;20049;-77
2023/06/24 06:40:54;;;;;;;2.72;1.95;;;19.40;99.90;;;;;;4982923;28;20049;-79
2023/06/24 06:43:21;;;;;;;2.30;2.10;;;19.50;99.90;;;;;;4966061;28;20154;-78
2023/06/24 06:45:48;;;;;;;2.20;2.00;;;19.70;99.90;;;;;;4996106;28;20068;-77
2023/06/24 06:48:15;;;;;;;2.10;1.90;;;19.90;99.90;;;;;;4984734;28;20104;-77
2023/06/24 06:50:42;;;;;;;2.33;1.90;;;20.10;99.90;;;;;;4990211;28;20545;-77
2023/06/24 06:53:09;;;;;;;2.08;1.85;;;20.20;99.90;;;;;;4952208;28;20057;-77
2023/06/24 06:55:37;;;;;;;1.92;1.73;;;20.50;99.90;;;;;;4969298;28;20053;-77
2023/06/24 06:58:04;;;;;;;2.45;1.75;;;20.70;99.90;;;;;;4955952;28;20054;-77
2023/06/24 07:00:31;;;;;;;1.98;1.75;;;21.00;99.90;;;;;;4988469;28;20609;-78
2023/06/24 07:02:57;;;;;;;1.85;1.65;;;21.20;99.90;;;;;;4970675;28;20054;-77
2023/06/24 07:05:24;;;;;;;2.15;1.55;;;21.40;99.90;;;;;;4981426;28;20224;-77
2023/06/24 07:07:51;;;;;;;1.58;1.48;;;21.60;99.90;;;;;;4998775;28;20108;-78
2023/06/24 07:10:18;;;;;;;1.92;1.63;;;21.80;99.90;;;;;;4982200;28;20057;-78
2023/06/24 07:12:45;;;;;;;1.40;1.30;;;21.90;99.90;;;;;;4976698;28;20149;-79
2023/06/24 07:15:12;;;;;;;1.70;1.52;;;22.00;99.90;;;;;;4985574;28;20046;-78
2023/06/24 07:17:40;;;;;;;1.50;1.40;;;22.10;99.90;;;;;;4982731;28;20133;-78
2023/06/24 07:20:07;;;;;;;1.95;1.50;;;22.10;99.90;;;;;;4985063;28;20049;-78
2023/06/24 07:22:34;;;;;;;1.58;1.48;;;22.10;99.90;;;;;;4953302;28;20076;-78
2023/06/24 07:25:01;;;;;;;1.90;1.70;;;22.10;99.90;;;;;;4985487;28;20115;-77
2023/06/24 07:27:27;;;;;;;2.00;1.70;;;22.20;99.90;;;;;;4989456;28;20489;-77
2023/06/24 07:29:54;;;;;;;2.08;1.88;;;22.20;99.90;;;;;;5002213;28;20061;-78
2023/06/24 07:32:21;;;;;;;2.00;1.50;;;22.10;99.90;;;;;;4990169;28;20115;-77
2023/06/24 07:34:48;;;;;;;2.10;1.90;;;22.20;99.90;;;;;;4988591;28;20104;-77
2023/06/24 07:37:15;;;;;;;1.65;1.55;;;22.30;99.90;;;;;;4989618;28;20050;-78
2023/06/24 07:39:51;;;;;;;2.00;1.80;;;22.40;99.90;;;;;;4981881;28;20137;-78
2023/06/24 07:42:18;;;;;;;2.13;1.52;;;22.50;99.90;;;;;;4993546;28;20050;-76
2023/06/24 07:44:46;;;;;;;1.65;1.35;;;22.60;99.90;;;;;;4993516;28;20049;-78
2023/06/24 07:47:13;;;;;;;1.90;1.58;;;22.80;99.90;;;;;;4963756;28;20167;-77
2023/06/24 07:49:40;;;;;;;2.20;1.70;;;22.90;99.90;;;;;;5003560;28;20046;-77
2023/06/24 07:52:07;;;;;;;2.00;1.60;;;23.00;99.90;;;;;;4963863;28;20057;-77
2023/06/24 07:54:34;;;;;;;1.90;1.60;;;23.00;99.90;;;;;;4959419;28;20049;-79
2023/06/24 07:57:01;;;;;;;1.92;1.65;;;23.00;99.90;;;;;;5001491;28;20049;-77
2023/06/24 07:59:28;;;;;;;2.10;1.60;;;23.10;99.90;;;;;;4982677;28;20065;-77
2023/06/24 08:01:55;;;;;;;2.03;1.83;;;23.00;99.90;;;;;;4981036;28;20042;-77
2023/06/24 08:04:21;;;;;;;1.98;1.58;;;23.10;99.90;;;;;;4983125;28;20052;-78
2023/06/24 08:06:48;;;;;;;1.60;1.50;;;23.20;99.90;;;;;;5000985;28;20133;-77
2023/06/24 08:09:16;;;;;;;1.88;1.55;;;23.40;99.90;;;;;;4978578;28;20065;-77
2023/06/24 08:11:43;;;;;;;1.67;1.58;;;23.50;99.90;;;;;;4984852;28;20046;-77
2023/06/24 08:14:10;;;;;;;2.33;2.05;;;23.50;99.90;;;;;;4980858;28;20050;-77
2023/06/24 08:16:37;;;;;;;2.03;1.83;;;23.60;99.90;;;;;;4987815;28;20050;-77
2023/06/24 08:19:04;;;;;;;1.98;1.73;;;23.60;99.90;;;;;;4981415;28;20107;-79
2023/06/24 08:21:30;;;;;;;1.80;1.45;;;23.70;99.90;;;;;;4993696;28;20090;-77
2023/06/24 08:23:57;;;;;;;2.22;1.73;;;23.90;99.90;;;;;;4971824;28;20164;-79
2023/06/24 08:26:24;;;;;;;1.88;1.63;;;24.00;99.90;;;;;;4987357;28;20116;-78
2023/06/24 08:28:51;;;;;;;1.70;1.55;;;24.00;99.90;;;;;;4991583;28;20053;-78
2023/06/24 08:31:17;;;;;;;1.80;1.50;;;24.20;99.90;;;;;;5008046;28;20073;-78
2023/06/24 08:33:47;;;;;;;1.80;1.42;;;24.30;99.90;;;;;;4972836;28;20046;-77
2023/06/24 08:36:14;;;;;;;1.60;1.50;;;24.40;99.90;;;;;;4994127;28;20046;-78
2023/06/24 08:38:41;;;;;;;1.80;1.70;;;24.50;99.90;;;;;;4987510;28;20140;-78
2023/06/24 08:41:07;;;;;;;3.38;1.63;;;24.60;99.90;;;;;;5004990;28;20493;-78
2023/06/24 08:43:34;;;;;;;2.00;1.65;;;24.50;99.90;;;;;;5004576;28;20517;-78
2023/06/24 08:46:01;;;;;;;2.53;1.67;;;24.60;99.90;;;;;;4988720;28;20058;-78
2023/06/24 08:48:28;;;;;;;2.13;1.80;;;24.60;99.90;;;;;;4984220;28;20068;-78
2023/06/24 08:50:55;;;;;;;2.13;1.63;;;24.60;99.90;;;;;;4980893;28;20061;-77
2023/06/24 08:53:22;;;;;;;1.80;1.50;;;24.80;99.90;;;;;;4983601;28;20042;-77
2023/06/24 08:55:49;;;;;;;1.70;1.35;;;24.80;99.90;;;;;;4980002;28;20046;-77
2023/06/24 08:58:15;;;;;;;2.20;1.55;;;24.90;99.90;;;;;;5003203;28;20111;-77
2023/06/24 09:00:43;;;;;;;2.67;1.40;;;25.10;99.90;;;;;;4986463;28;20046;-77
2023/06/24 09:03:09;;;;;;;1.67;1.23;;;25.00;99.90;;;;;;4989255;28;20055;-76
2023/06/24 09:05:36;;;;;;;1.58;1.20;;;25.00;99.90;;;;;;4970097;28;20057;-77
2023/06/24 09:08:04;;;;;;;2.35;1.55;;;25.10;99.90;;;;;;5002252;28;20216;-77
2023/06/24 09:10:35;;;;;;;1.70;1.60;;;25.00;99.90;;;;;;5005707;28;20058;-77
2023/06/24 09:13:03;;;;;;;1.60;1.33;;;25.00;99.90;;;;;;4969652;28;20392;-78
2023/06/24 09:15:34;;;;;;;2.13;1.50;;;24.90;99.90;;;;;;4969514;28;20420;-78
2023/06/24 09:18:02;;;;;;;2.00;1.58;;;24.70;99.90;;;;;;4980352;28;20191;-78
2023/06/24 09:20:30;;;;;;;1.40;1.08;;;24.60;99.90;;;;;;4971136;28;20057;-78
2023/06/24 09:23:00;;;;;;;1.95;1.30;;;24.60;99.90;;;;;;4970474;28;20060;-78
2023/06/24 09:25:27;;;;;;;1.58;1.40;;;24.50;99.90;;;;;;4954270;28;20184;-78
2023/06/24 09:27:55;;;;;;;1.65;1.40;;;24.40;99.90;;;;;;5002764;28;20088;-79
2023/06/24 09:30:23;;;;;;;1.77;1.60;;;24.50;99.90;;;;;;4986723;28;20108;-78
2023/06/24 09:32:50;;;;;;;1.85;1.33;;;24.60;99.90;;;;;;4953711;28;20058;-78
2023/06/24 09:35:18;;;;;;;1.50;1.40;;;24.80;99.90;;;;;;4970495;28;20104;-78
2023/06/24 09:38:00;;;;;;;2.22;1.83;;;25.00;99.90;;;;;;4986991;28;20056;-79
2023/06/24 09:40:27;;;;;;;2.10;1.15;;;25.10;99.90;;;;;;4984261;28;20535;-77
2023/06/24 09:42:55;;;;;;;2.72;1.67;;;25.10;99.90;;;;;;4974255;28;20046;-78
2023/06/24 09:45:27;;;;;;;1.75;1.60;;;25.10;99.90;;;;;;4975558;28;20064;-77
2023/06/24 09:47:54;;;;;;;1.87;1.43;;;25.00;99.90;;;;;;4958172;28;20050;-78
2023/06/24 09:50:21;;;;;;;1.95;1.33;;;25.00;99.90;;;;;;4962730;28;20103;-78
2023/06/24 09:52:48;;;;;;;2.45;1.67;;;25.10;99.90;;;;;;4960792;28;20076;-80
2023/06/24 09:55:16;;;;;;;1.95;1.58;;;25.30;99.90;;;;;;5000665;28;20233;-75
2023/06/24 09:57:49;;;;;;;1.23;1.13;;;25.50;99.90;;;;;;4985856;28;20420;-77
2023/06/24 10:00:18;;;;;;;1.77;1.50;;;25.80;99.90;;;;;;4968928;28;20120;-77
2023/06/24 10:02:45;;;;;;;2.17;1.42;;;25.90;99.90;;;;;;4988935;28;20516;-77
2023/06/24 10:05:13;;;;;;;1.63;1.30;;;26.00;99.90;;;;;;4962852;28;20041;-77
2023/06/24 10:07:40;;;;;;;1.50;1.40;;;26.00;99.90;;;;;;4992646;28;20058;-78
2023/06/24 10:10:08;;;;;;;1.40;1.30;;;26.00;99.90;;;;;;4970098;28;20049;-79
2023/06/24 10:12:35;;;;;;;1.58;1.40;;;25.90;99.90;;;;;;4985960;28;20088;-77
2023/06/24 10:15:02;;;;;;;1.73;1.45;;;26.00;99.90;;;;;;4970559;28;20085;-78
2023/06/24 10:17:30;;;;;;;1.85;1.08;;;26.10;99.90;;;;;;4955354;28;20042;-78
2023/06/24 10:19:56;;;;;;;1.58;1.15;;;26.10;99.90;;;;;;4965762;28;20548;-78
2023/06/24 10:22:24;;;;;;;1.55;1.23;;;26.40;99.90;;;;;;4967035;28;20085;-78
2023/06/24 10:24:51;;;;;;;1.48;1.30;;;26.60;99.80;;;;;;5002193;28;20060;-78
2023/06/24 10:27:21;;;;;;;1.30;1.05;;;26.70;98.90;;;;;;4988221;28;20046;-78
2023/06/24 10:29:49;;;;;;;1.30;1.10;;;26.80;99.90;;;;;;4980296;28;20140;-78
2023/06/24 10:32:21;;;;;;;1.27;0.90;;;26.80;98.90;;;;;;4983873;28;20050;-78
2023/06/24 10:34:53;;;;;;;1.10;1.00;;;27.00;99.00;;;;;;4985415;28;20057;-78
2023/06/24 10:37:25;;;;;;;1.10;1.00;;;27.30;98.90;;;;;;4971018;28;20120;-76
2023/06/24 10:39:58;;;;;;;1.10;1.00;;;27.60;98.90;;;;;;4997926;28;20084;-79
2023/06/24 10:42:45;;;;;;;1.75;1.40;;;27.60;98.50;;;;;;5001604;28;20560;-79
2023/06/24 10:45:12;;;;;;;1.92;1.48;;;27.50;98.70;;;;;;4982524;28;20162;-79
2023/06/24 10:47:41;;;;;;;1.40;1.23;;;27.40;98.70;;;;;;5004579;28;20572;-80
2023/06/24 10:50:10;;;;;;;1.30;1.10;;;27.30;98.20;;;;;;4963562;28;20072;-79
2023/06/24 10:52:41;;;;;;;1.13;1.02;;;27.40;98.80;;;;;;4960553;28;20045;-79
2023/06/24 10:55:08;;;;;;;1.87;1.43;;;27.50;98.50;;;;;;4959190;28;20715;-79
2023/06/24 10:57:35;;;;;;;1.83;1.20;;;27.40;98.90;;;;;;4970650;28;20322;-79
2023/06/24 11:00:03;;;;;;;1.55;1.20;;;27.40;99.00;;;;;;4992385;28;20054;-79
2023/06/24 11:02:30;;;;;;;1.17;1.02;;;27.40;98.50;;;;;;5006664;28;20132;-79
2023/06/24 11:05:00;;;;;;;1.27;1.08;;;27.20;98.70;;;;;;4996317;28;20077;-78
2023/06/24 11:07:31;;;;;;;1.40;1.20;;;27.20;98.80;;;;;;4977232;28;20143;-78
2023/06/24 11:10:01;;;;;;;1.30;0.98;;;27.20;98.60;;;;;;4989687;28;20064;-78
2023/06/24 11:12:35;;;;;;;1.65;0.90;;;27.30;98.50;;;;;;4967727;28;20050;-81
2023/06/24 11:15:06;;;;;;;0.82;0.80;;;27.60;98.10;;;;;;4981548;28;20041;-79
2023/06/24 11:17:34;;;;;;;1.08;0.98;;;27.80;98.40;;;;;;4995419;28;20046;-80
2023/06/24 11:20:01;;;;;;;1.25;1.05;;;27.90;98.00;;;;;;4974451;28;20058;-80
2023/06/24 11:22:28;;;;;;;1.27;0.93;;;28.10;97.80;;;;;;4981427;28;20050;-79
2023/06/24 11:24:56;;;;;;;0.80;0.70;;;28.20;97.60;;;;;;4986100;28;20057;-79
2023/06/24 11:27:26;;;;;;;1.00;0.80;;;28.60;97.00;;;;;;5022919;28;20373;-80
2023/06/24 11:29:54;;;;;;;0.75;0.70;;;29.00;96.20;;;;;;4994838;28;20136;-80
2023/06/24 11:32:21;;;;;;;1.20;0.90;;;29.30;95.50;;;;;;4948628;28;20608;-80
2023/06/24 11:34:47;;;;;;;0.90;0.70;;;29.40;95.40;;;;;;4970791;28;20049;-80
2023/06/24 11:37:16;;;;;;;0.80;0.80;;;29.30;95.40;;;;;;4986524;28;20521;-81
2023/06/24 11:39:44;;;;;;;0.77;0.63;;;29.30;95.50;;;;;;4970541;28;20090;-79
2023/06/24 11:42:11;;;;;;;1.00;0.90;;;28.90;95.30;;;;;;4954397;28;20042;-79
2023/06/24 11:44:43;;;;;;;0.93;0.80;;;28.80;95.60;;;;;;4971087;28;20052;-93
2023/06/24 11:47:10;;;;;;;1.45;1.23;;;28.50;95.80;;;;;;4975911;28;20125;-80
2023/06/24 11:49:55;;;;;;;1.00;0.90;;;28.40;96.00;;;;;;4970024;28;20073;-80
2023/06/24 11:52:41;;;;;;;0.63;0.60;;;28.70;96.00;;;;;;4981268;28;20056;-80
2023/06/24 11:55:26;;;;;;;1.27;1.00;;;29.10;95.80;;;;;;4990792;28;20404;-80
2023/06/24 11:58:01;;;;;;;1.70;1.10;;;29.60;95.50;;;;;;4967506;28;20051;-80
2023/06/24 12:00:32;;;;;;;0.75;0.75;;;30.10;95.30;;;;;;4983063;28;20621;-81
2023/06/24 12:03:02;;;;;;;1.10;1.00;;;30.80;94.40;;;;;;4989314;28;20149;-80
2023/06/24 12:05:33;;;;;;;1.73;0.98;;;31.10;93.70;;;;;;4963417;28;20063;-81
2023/06/24 12:08:02;;;;;;;1.30;0.90;;;31.00;93.50;;;;;;4967389;28;20046;-80
2023/06/24 12:10:29;;;;;;;0.90;0.80;;;30.80;93.90;;;;;;4950164;28;20045;-80
2023/06/24 12:12:57;;;;;;;1.00;0.90;;;30.50;94.20;;;;;;4964165;28;20054;-80
2023/06/24 12:15:23;;;;;;;0.85;0.80;;;30.40;94.00;;;;;;4966566;28;20112;-80
2023/06/24 12:17:50;;;;;;;1.02;0.90;;;30.30;93.60;;;;;;4979437;28;20138;-80
2023/06/24 12:20:18;;;;;;;1.00;0.90;;;30.30;93.70;;;;;;4965113;28;20064;-80
2023/06/24 12:22:46;;;;;;;1.10;1.00;;;31.00;93.40;;;;;;4969761;28;20849;-80
2023/06/24 12:25:13;;;;;;;1.00;0.90;;;31.20;92.70;;;;;;4981186;28;20061;-79
2023/06/24 12:27:41;;;;;;;1.25;1.15;;;31.10;93.10;;;;;;4951894;28;20543;-82
2023/06/24 12:30:08;;;;;;;1.25;1.02;;;30.80;93.50;;;;;;4965647;28;20089;-82
2023/06/24 12:32:35;;;;;;;1.20;1.10;;;30.70;93.80;;;;;;4969050;28;20050;-80
2023/06/24 12:35:03;;;;;;;1.10;0.90;;;30.50;93.80;;;;;;4950703;28;20058;-80
2023/06/24 12:37:31;;;;;;;1.02;0.90;;;30.50;93.60;;;;;;4967967;28;20049;-80
2023/06/24 12:40:02;;;;;;;1.10;0.80;;;30.30;93.70;;;;;;4965803;28;20559;-80
2023/06/24 12:42:29;;;;;;;0.90;0.80;;;30.20;93.90;;;;;;4966221;28;20049;-79
2023/06/24 12:44:56;;;;;;;0.85;0.75;;;30.10;93.70;;;;;;4980029;28;20306;-80
2023/06/24 12:47:22;;;;;;;1.23;0.95;;;30.30;93.60;;;;;;4966050;28;21001;-79
2023/06/24 12:49:49;;;;;;;0.80;0.70;;;30.30;93.60;;;;;;4956376;28;20600;-80
2023/06/24 12:52:16;;;;;;;1.27;1.00;;;30.20;93.20;;;;;;4980545;28;20077;-79